sensor_id;sensor_type;location;lat;lon;timestamp;temperature;humidity
20829;DHT22;10575;50.124;8.582;2023-02-27T00:00:07;0.50;99.90
20829;DHT22;10575;50.124;8.582;2023-02-27T00:02:41;0.50;99.90
20829;DHT22;10575;50.124;8.582;2023-02-27T00:05:07;0.40;99.90
20829;DHT22;10575;50.124;8.582;2023-02-27T00:07:32;0.40;99.90
20829;DHT22;10575;50.124;8.582;2023-02-27T00:09:58;0.40;99.90
20829;DHT22;10575;50.124;8.582;2023-02-27T00:12:23;0.30;99.90
20829;DHT22;10575;50.124;8.582;2023-02-27T00:14:49;0.40;99.90
20829;DHT22;10575;50.124;8.582;2023-02-27T00:17:15;0.30;99.90
20829;DHT22;10575;50.124;8.582;2023-02-27T00:19:41;0.30;99.90
20829;DHT22;10575;50.124;8.582;2023-02-27T00:22:06;0.30;99.90
20829;DHT22;10575;50.124;8.582;2023-02-27T00:24:32;0.30;99.90
20829;DHT22;10575;50.124;8.582;2023-02-27T00:26:57;0.30;99.90
20829;DHT22;10575;50.124;8.582;2023-02-27T00:29:23;0.30;99.90
20829;DHT22;10575;50.124;8.582;2023-02-27T00:31:49;0.30;99.90
20829;DHT22;10575;50.124;8.582;2023-02-27T00:34:14;0.30;99.90
20829;DHT22;10575;50.124;8.582;2023-02-27T00:36:40;0.30;99.90
20829;DHT22;10575;50.124;8.582;2023-02-27T00:39:05;0.30;99.90
20829;DHT22;10575;50.124;8.582;2023-02-27T00:41:31;0.40;99.90
20829;DHT22;10575;50.124;8.582;2023-02-27T00:43:56;0.40;99.90
20829;DHT22;10575;50.124;8.582;2023-02-27T00:46:22;0.40;99.90
20829;DHT22;10575;50.124;8.582;2023-02-27T00:48:48;0.30;99.90
20829;DHT22;10575;50.124;8.582;2023-02-27T00:51:13;0.40;99.90
20829;DHT22;10575;50.124;8.582;2023-02-27T00:53:39;0.40;99.90
20829;DHT22;10575;50.124;8.582;2023-02-27T00:56:05;0.30;99.90
20829;DHT22;10575;50.124;8.582;2023-02-27T00:58:31;0.40;99.90
20829;DHT22;10575;50.124;8.582;2023-02-27T01:00:59;0.30;99.90
20829;DHT22;10575;50.124;8.582;2023-02-27T01:03:25;0.30;99.90
20829;DHT22;10575;50.124;8.582;2023-02-27T01:05:51;0.30;99.90
20829;DHT22;10575;50.124;8.582;2023-02-27T01:08:16;0.30;99.90
20829;DHT22;10575;50.124;8.582;2023-02-27T01:10:42;0.30;99.90
20829;DHT22;10575;50.124;8.582;2023-02-27T01:13:08;0.30;99.90
20829;DHT22;10575;50.124;8.582;2023-02-27T01:15:34;0.40;99.90
20829;DHT22;10575;50.124;8.582;2023-02-27T01:17:59;0.40;99.90
20829;DHT22;10575;50.124;8.582;2023-02-27T01:20:25;0.30;99.90
20829;DHT22;10575;50.124;8.582;2023-02-27T01:22:51;0.30;99.90
20829;DHT22;10575;50.124;8.582;2023-02-27T01:25:16;0.30;99.90
20829;DHT22;10575;50.124;8.582;2023-02-27T01:27:42;0.20;99.90
20829;DHT22;10575;50.124;8.582;2023-02-27T01:30:08;0.20;99.90
20829;DHT22;10575;50.124;8.582;2023-02-27T01:32:35;0.30;99.90
20829;DHT22;10575;50.124;8.582;2023-02-27T01:35:01;0.20;99.90
20829;DHT22;10575;50.124;8.582;2023-02-27T01:37:26;0.20;99.90
20829;DHT22;10575;50.124;8.582;2023-02-27T01:39:52;0.30;99.90
20829;DHT22;10575;50.124;8.582;2023-02-27T01:42:23;0.30;99.90
20829;DHT22;10575;50.124;8.582;2023-02-27T01:48:05;0.30;99.90
20829;DHT22;10575;50.124;8.582;2023-02-27T01:50:33;0.30;99.90
20829;DHT22;10575;50.124;8.582;2023-02-27T01:53:00;0.30;99.90
20829;DHT22;10575;50.124;8.582;2023-02-27T01:55:29;0.30;99.90
20829;DHT22;10575;50.124;8.582;2023-02-27T01:57:56;0.30;99.90
20829;DHT22;10575;50.124;8.582;2023-02-27T02:00:22;0.30;99.90
20829;DHT22;10575;50.124;8.582;2023-02-27T02:03:13;0.30;99.90
20829;DHT22;10575;50.124;8.582;2023-02-27T02:05:41;0.30;99.90
20829;DHT22;10575;50.124;8.582;2023-02-27T02:08:08;0.30;99.90
20829;DHT22;10575;50.124;8.582;2023-02-27T02:10:35;0.20;99.90
20829;DHT22;10575;50.124;8.582;2023-02-27T02:13:01;0.20;99.90
20829;DHT22;10575;50.124;8.582;2023-02-27T02:15:32;0.20;99.90
20829;DHT22;10575;50.124;8.582;2023-02-27T02:18:23;0.10;99.90
20829;DHT22;10575;50.124;8.582;2023-02-27T02:23:50;0.10;99.90
20829;DHT22;10575;50.124;8.582;2023-02-27T02:29:37;0.10;99.90
20829;DHT22;10575;50.124;8.582;2023-02-27T02:40:29;0.00;99.90
20829;DHT22;10575;50.124;8.582;2023-02-27T02:43:18;-0.10;99.90
20829;DHT22;10575;50.124;8.582;2023-02-27T02:46:00;-0.10;99.90
20829;DHT22;10575;50.124;8.582;2023-02-27T02:48:52;-0.10;99.90
20829;DHT22;10575;50.124;8.582;2023-02-27T02:51:21;-0.10;99.90
20829;DHT22;10575;50.124;8.582;2023-02-27T02:56:26;-0.10;99.90
20829;DHT22;10575;50.124;8.582;2023-02-27T03:01:33;-0.10;99.90
20829;DHT22;10575;50.124;8.582;2023-02-27T03:04:13;-0.20;99.90
20829;DHT22;10575;50.124;8.582;2023-02-27T03:06:51;-0.10;99.90
20829;DHT22;10575;50.124;8.582;2023-02-27T03:09:33;-0.10;99.90
20829;DHT22;10575;50.124;8.582;2023-02-27T03:12:02;-0.20;99.90
20829;DHT22;10575;50.124;8.582;2023-02-27T03:17:11;-0.20;99.90
20829;DHT22;10575;50.124;8.582;2023-02-27T03:19:44;-0.30;99.90
20829;DHT22;10575;50.124;8.582;2023-02-27T03:22:16;-0.30;99.90
20829;DHT22;10575;50.124;8.582;2023-02-27T03:24:54;-0.40;99.90
20829;DHT22;10575;50.124;8.582;2023-02-27T03:27:22;-0.40;99.90
20829;DHT22;10575;50.124;8.582;2023-02-27T03:29:54;-0.50;99.90
20829;DHT22;10575;50.124;8.582;2023-02-27T03:32:24;-0.50;99.90
20829;DHT22;10575;50.124;8.582;2023-02-27T03:34:52;-0.50;99.90
20829;DHT22;10575;50.124;8.582;2023-02-27T03:40:32;-0.50;99.90
20829;DHT22;10575;50.124;8.582;2023-02-27T03:45:47;-0.50;99.90
20829;DHT22;10575;50.124;8.582;2023-02-27T03:48:13;-0.50;99.90
20829;DHT22;10575;50.124;8.582;2023-02-27T03:50:39;-0.40;99.90
20829;DHT22;10575;50.124;8.582;2023-02-27T03:53:10;-0.40;99.90
20829;DHT22;10575;50.124;8.582;2023-02-27T03:55:40;-0.40;99.90
20829;DHT22;10575;50.124;8.582;2023-02-27T03:58:06;-0.40;99.90
20829;DHT22;10575;50.124;8.582;2023-02-27T04:00:32;-0.40;99.90
20829;DHT22;10575;50.124;8.582;2023-02-27T04:02:59;-0.40;99.90
20829;DHT22;10575;50.124;8.582;2023-02-27T04:05:26;-0.40;99.90
20829;DHT22;10575;50.124;8.582;2023-02-27T04:08:10;-0.40;99.90
20829;DHT22;10575;50.124;8.582;2023-02-27T04:11:31;-0.30;99.90
20829;DHT22;10575;50.124;8.582;2023-02-27T04:14:22;-0.40;99.90
20829;DHT22;10575;50.124;8.582;2023-02-27T04:17:02;-0.40;99.90
20829;DHT22;10575;50.124;8.582;2023-02-27T04:22:25;-0.30;99.90
20829;DHT22;10575;50.124;8.582;2023-02-27T04:36:00;-0.40;99.90
20829;DHT22;10575;50.124;8.582;2023-02-27T04:41:07;-0.40;99.90
20829;DHT22;10575;50.124;8.582;2023-02-27T04:43:35;-0.40;99.90
20829;DHT22;10575;50.124;8.582;2023-02-27T04:46:03;-0.40;99.90
20829;DHT22;10575;50.124;8.582;2023-02-27T04:48:42;-0.40;99.90
20829;DHT22;10575;50.124;8.582;2023-02-27T04:51:13;-0.40;99.90
20829;DHT22;10575;50.124;8.582;2023-02-27T04:53:50;-0.40;99.90
20829;DHT22;10575;50.124;8.582;2023-02-27T04:56:25;-0.40;99.90
20829;DHT22;10575;50.124;8.582;2023-02-27T04:58:55;-0.40;99.90
20829;DHT22;10575;50.124;8.582;2023-02-27T05:01:28;-0.40;99.90
20829;DHT22;10575;50.124;8.582;2023-02-27T05:03:56;-0.40;99.90
20829;DHT22;10575;50.124;8.582;2023-02-27T05:06:27;-0.40;99.90
20829;DHT22;10575;50.124;8.582;2023-02-27T05:12:03;-0.40;99.90
20829;DHT22;10575;50.124;8.582;2023-02-27T05:14:37;-0.50;99.90
20829;DHT22;10575;50.124;8.582;2023-02-27T05:17:19;-0.50;99.90
20829;DHT22;10575;50.124;8.582;2023-02-27T05:19:46;-0.50;99.90
20829;DHT22;10575;50.124;8.582;2023-02-27T05:25:22;-0.60;99.90
20829;DHT22;10575;50.124;8.582;2023-02-27T05:28:02;-0.60;99.90
20829;DHT22;10575;50.124;8.582;2023-02-27T05:30:35;-0.60;99.90
20829;DHT22;10575;50.124;8.582;2023-02-27T05:33:06;-0.60;99.90
20829;DHT22;10575;50.124;8.582;2023-02-27T05:35:44;-0.60;99.90
20829;DHT22;10575;50.124;8.582;2023-02-27T05:38:16;-0.60;99.90
20829;DHT22;10575;50.124;8.582;2023-02-27T05:40:47;-0.60;99.90
20829;DHT22;10575;50.124;8.582;2023-02-27T05:43:37;-0.60;99.90
20829;DHT22;10575;50.124;8.582;2023-02-27T05:46:16;-0.60;99.90
20829;DHT22;10575;50.124;8.582;2023-02-27T05:48:52;-0.60;99.90
20829;DHT22;10575;50.124;8.582;2023-02-27T05:51:20;-0.60;99.90
20829;DHT22;10575;50.124;8.582;2023-02-27T05:56:46;-0.50;99.90
20829;DHT22;10575;50.124;8.582;2023-02-27T05:59:23;-0.50;99.90
20829;DHT22;10575;50.124;8.582;2023-02-27T06:01:51;-0.50;99.90
20829;DHT22;10575;50.124;8.582;2023-02-27T06:04:17;-0.50;99.90
20829;DHT22;10575;50.124;8.582;2023-02-27T06:06:43;-0.50;99.90
20829;DHT22;10575;50.124;8.582;2023-02-27T06:09:09;-0.50;99.90
20829;DHT22;10575;50.124;8.582;2023-02-27T06:11:34;-0.50;99.90
20829;DHT22;10575;50.124;8.582;2023-02-27T06:14:00;-0.50;99.90
20829;DHT22;10575;50.124;8.582;2023-02-27T06:16:26;-0.40;99.90
20829;DHT22;10575;50.124;8.582;2023-02-27T06:18:51;-0.40;99.90
20829;DHT22;10575;50.124;8.582;2023-02-27T06:21:17;-0.40;99.90
20829;DHT22;10575;50.124;8.582;2023-02-27T06:23:42;-0.40;99.90
20829;DHT22;10575;50.124;8.582;2023-02-27T06:26:08;-0.40;99.90
20829;DHT22;10575;50.124;8.582;2023-02-27T06:28:38;-0.40;99.90
20829;DHT22;10575;50.124;8.582;2023-02-27T06:31:03;-0.40;99.90
20829;DHT22;10575;50.124;8.582;2023-02-27T06:33:29;-0.40;99.90
20829;DHT22;10575;50.124;8.582;2023-02-27T06:35:54;-0.40;99.90
20829;DHT22;10575;50.124;8.582;2023-02-27T06:38:20;-0.50;99.90
20829;DHT22;10575;50.124;8.582;2023-02-27T06:40:46;-0.50;99.90
20829;DHT22;10575;50.124;8.582;2023-02-27T06:43:11;-0.50;99.90
20829;DHT22;10575;50.124;8.582;2023-02-27T06:45:37;-0.50;99.90
20829;DHT22;10575;50.124;8.582;2023-02-27T06:48:02;-0.40;99.90
20829;DHT22;10575;50.124;8.582;2023-02-27T06:50:28;-0.40;99.90
20829;DHT22;10575;50.124;8.582;2023-02-27T06:52:53;-0.30;99.90
20829;DHT22;10575;50.124;8.582;2023-02-27T06:55:19;-0.10;99.90
20829;DHT22;10575;50.124;8.582;2023-02-27T06:57:47;0.10;99.90
20829;DHT22;10575;50.124;8.582;2023-02-27T07:00:14;0.40;99.90
20829;DHT22;10575;50.124;8.582;2023-02-27T07:02:39;0.70;99.90
20829;DHT22;10575;50.124;8.582;2023-02-27T07:05:05;0.90;99.90
20829;DHT22;10575;50.124;8.582;2023-02-27T07:07:32;1.00;99.90
20829;DHT22;10575;50.124;8.582;2023-02-27T07:09:57;1.10;99.90
20829;DHT22;10575;50.124;8.582;2023-02-27T07:12:23;1.20;99.90
20829;DHT22;10575;50.124;8.582;2023-02-27T07:14:49;1.20;99.90
20829;DHT22;10575;50.124;8.582;2023-02-27T07:17:14;1.30;99.90
20829;DHT22;10575;50.124;8.582;2023-02-27T07:19:40;1.40;99.90
20829;DHT22;10575;50.124;8.582;2023-02-27T07:22:05;1.60;99.90
20829;DHT22;10575;50.124;8.582;2023-02-27T07:24:33;2.00;99.90
20829;DHT22;10575;50.124;8.582;2023-02-27T07:26:59;2.40;99.90
20829;DHT22;10575;50.124;8.582;2023-02-27T07:29:24;2.80;99.90
20829;DHT22;10575;50.124;8.582;2023-02-27T07:31:50;3.10;99.90
20829;DHT22;10575;50.124;8.582;2023-02-27T07:34:15;3.00;99.90
20829;DHT22;10575;50.124;8.582;2023-02-27T07:36:41;3.00;99.90
20829;DHT22;10575;50.124;8.582;2023-02-27T07:39:07;2.70;99.90
20829;DHT22;10575;50.124;8.582;2023-02-27T07:41:35;2.60;99.90
20829;DHT22;10575;50.124;8.582;2023-02-27T07:44:01;2.50;99.90
20829;DHT22;10575;50.124;8.582;2023-02-27T07:46:26;2.90;99.90
20829;DHT22;10575;50.124;8.582;2023-02-27T07:48:55;4.10;99.90
20829;DHT22;10575;50.124;8.582;2023-02-27T07:51:20;5.60;99.90
20829;DHT22;10575;50.124;8.582;2023-02-27T07:53:46;6.70;99.90
20829;DHT22;10575;50.124;8.582;2023-02-27T07:56:11;7.00;99.90
20829;DHT22;10575;50.124;8.582;2023-02-27T07:58:37;6.90;99.90
20829;DHT22;10575;50.124;8.582;2023-02-27T08:01:02;6.50;99.90
20829;DHT22;10575;50.124;8.582;2023-02-27T08:03:28;5.80;99.90
20829;DHT22;10575;50.124;8.582;2023-02-27T08:05:53;5.40;99.90
20829;DHT22;10575;50.124;8.582;2023-02-27T08:08:19;5.60;99.90
20829;DHT22;10575;50.124;8.582;2023-02-27T08:10:46;6.60;99.90
20829;DHT22;10575;50.124;8.582;2023-02-27T08:13:11;7.70;99.90
20829;DHT22;10575;50.124;8.582;2023-02-27T08:15:38;7.90;99.90
20829;DHT22;10575;50.124;8.582;2023-02-27T08:18:03;7.40;99.90
20829;DHT22;10575;50.124;8.582;2023-02-27T08:20:29;7.00;99.90
20829;DHT22;10575;50.124;8.582;2023-02-27T08:22:57;6.10;99.90
20829;DHT22;10575;50.124;8.582;2023-02-27T08:25:22;6.00;99.90
20829;DHT22;10575;50.124;8.582;2023-02-27T08:27:48;6.20;99.90
20829;DHT22;10575;50.124;8.582;2023-02-27T08:30:14;6.40;99.90
20829;DHT22;10575;50.124;8.582;2023-02-27T08:32:41;6.10;99.90
20829;DHT22;10575;50.124;8.582;2023-02-27T08:35:08;5.30;99.90
20829;DHT22;10575;50.124;8.582;2023-02-27T08:37:33;4.70;99.90
20829;DHT22;10575;50.124;8.582;2023-02-27T08:39:59;4.20;99.90
20829;DHT22;10575;50.124;8.582;2023-02-27T08:42:24;4.00;99.90
20829;DHT22;10575;50.124;8.582;2023-02-27T08:44:56;4.50;99.90
20829;DHT22;10575;50.124;8.582;2023-02-27T08:47:22;5.70;99.90
20829;DHT22;10575;50.124;8.582;2023-02-27T08:49:47;6.30;99.90
20829;DHT22;10575;50.124;8.582;2023-02-27T08:52:13;6.60;99.90
20829;DHT22;10575;50.124;8.582;2023-02-27T08:54:38;7.00;99.90
20829;DHT22;10575;50.124;8.582;2023-02-27T08:57:04;7.90;99.90
20829;DHT22;10575;50.124;8.582;2023-02-27T08:59:30;8.80;99.90
20829;DHT22;10575;50.124;8.582;2023-02-27T09:01:55;10.20;99.90
20829;DHT22;10575;50.124;8.582;2023-02-27T09:04:21;11.20;98.40
20829;DHT22;10575;50.124;8.582;2023-02-27T09:06:47;12.40;95.30
20829;DHT22;10575;50.124;8.582;2023-02-27T09:09:13;13.30;92.70
20829;DHT22;10575;50.124;8.582;2023-02-27T09:11:38;15.20;87.20
20829;DHT22;10575;50.124;8.582;2023-02-27T09:14:04;15.80;78.80
20829;DHT22;10575;50.124;8.582;2023-02-27T09:16:30;15.70;72.00
20829;DHT22;10575;50.124;8.582;2023-02-27T09:18:56;14.50;73.30
20829;DHT22;10575;50.124;8.582;2023-02-27T09:21:21;14.00;74.80
20829;DHT22;10575;50.124;8.582;2023-02-27T09:23:49;14.30;74.20
20829;DHT22;10575;50.124;8.582;2023-02-27T09:26:15;15.00;71.80
20829;DHT22;10575;50.124;8.582;2023-02-27T09:28:41;15.80;67.60
20829;DHT22;10575;50.124;8.582;2023-02-27T09:31:08;14.80;68.30
20829;DHT22;10575;50.124;8.582;2023-02-27T09:33:35;14.40;70.60
20829;DHT22;10575;50.124;8.582;2023-02-27T09:36:02;14.80;68.20
20829;DHT22;10575;50.124;8.582;2023-02-27T09:38:27;14.40;67.50
20829;DHT22;10575;50.124;8.582;2023-02-27T09:40:55;12.20;71.50
20829;DHT22;10575;50.124;8.582;2023-02-27T09:43:27;9.80;78.20
20829;DHT22;10575;50.124;8.582;2023-02-27T09:45:56;7.90;84.80
20829;DHT22;10575;50.124;8.582;2023-02-27T09:50:54;5.40;93.00
20829;DHT22;10575;50.124;8.582;2023-02-27T09:53:25;4.60;94.60
20829;DHT22;10575;50.124;8.582;2023-02-27T09:55:53;4.50;96.30
20829;DHT22;10575;50.124;8.582;2023-02-27T09:59:04;4.40;97.30
20829;DHT22;10575;50.124;8.582;2023-02-27T10:01:42;4.40;98.30
20829;DHT22;10575;50.124;8.582;2023-02-27T10:04:30;4.40;98.60
20829;DHT22;10575;50.124;8.582;2023-02-27T10:07:24;4.40;99.10
20829;DHT22;10575;50.124;8.582;2023-02-27T10:10:11;4.30;99.60
20829;DHT22;10575;50.124;8.582;2023-02-27T10:13:02;3.80;99.90
20829;DHT22;10575;50.124;8.582;2023-02-27T10:15:33;3.50;99.90
20829;DHT22;10575;50.124;8.582;2023-02-27T10:18:13;3.40;99.90
20829;DHT22;10575;50.124;8.582;2023-02-27T10:21:02;3.40;99.90
20829;DHT22;10575;50.124;8.582;2023-02-27T10:26:12;3.70;99.90
20829;DHT22;10575;50.124;8.582;2023-02-27T10:28:38;3.90;99.90
20829;DHT22;10575;50.124;8.582;2023-02-27T10:31:17;4.10;99.90
20829;DHT22;10575;50.124;8.582;2023-02-27T10:33:45;3.90;99.90
20829;DHT22;10575;50.124;8.582;2023-02-27T10:36:13;3.80;99.90
20829;DHT22;10575;50.124;8.582;2023-02-27T10:38:43;3.80;99.90
20829;DHT22;10575;50.124;8.582;2023-02-27T10:41:12;3.90;99.90
20829;DHT22;10575;50.124;8.582;2023-02-27T10:43:39;4.10;99.90
20829;DHT22;10575;50.124;8.582;2023-02-27T10:46:35;4.10;99.90
20829;DHT22;10575;50.124;8.582;2023-02-27T10:49:15;4.20;99.90
20829;DHT22;10575;50.124;8.582;2023-02-27T10:51:41;4.30;99.90
20829;DHT22;10575;50.124;8.582;2023-02-27T10:56:54;4.50;99.90
20829;DHT22;10575;50.124;8.582;2023-02-27T10:59:30;4.50;99.90
20829;DHT22;10575;50.124;8.582;2023-02-27T11:01:59;4.40;99.90
20829;DHT22;10575;50.124;8.582;2023-02-27T11:04:28;4.40;99.90
20829;DHT22;10575;50.124;8.582;2023-02-27T11:06:56;4.50;99.90
20829;DHT22;10575;50.124;8.582;2023-02-27T11:09:28;4.40;99.90
20829;DHT22;10575;50.124;8.582;2023-02-27T11:12:09;4.10;99.90
20829;DHT22;10575;50.124;8.582;2023-02-27T11:14:34;4.00;99.90
20829;DHT22;10575;50.124;8.582;2023-02-27T11:17:01;3.90;99.90
20829;DHT22;10575;50.124;8.582;2023-02-27T11:19:31;4.00;99.90
20829;DHT22;10575;50.124;8.582;2023-02-27T11:22:13;3.80;99.90
20829;DHT22;10575;50.124;8.582;2023-02-27T11:24:39;3.70;99.90
20829;DHT22;10575;50.124;8.582;2023-02-27T11:27:22;3.60;99.90
20829;DHT22;10575;50.124;8.582;2023-02-27T11:30:04;3.50;99.90
20829;DHT22;10575;50.124;8.582;2023-02-27T11:32:50;3.40;99.90
20829;DHT22;10575;50.124;8.582;2023-02-27T11:35:34;3.30;99.90
20829;DHT22;10575;50.124;8.582;2023-02-27T11:38:06;3.30;99.90
20829;DHT22;10575;50.124;8.582;2023-02-27T11:40:50;3.30;99.90
20829;DHT22;10575;50.124;8.582;2023-02-27T11:43:49;3.30;99.90
20829;DHT22;10575;50.124;8.582;2023-02-27T11:46:20;3.40;99.90
20829;DHT22;10575;50.124;8.582;2023-02-27T11:48:53;3.50;99.90
20829;DHT22;10575;50.124;8.582;2023-02-27T11:57:26;3.70;99.90
20829;DHT22;10575;50.124;8.582;2023-02-27T12:05:50;4.60;99.90
20829;DHT22;10575;50.124;8.582;2023-02-27T12:11:03;4.60;99.90
20829;DHT22;10575;50.124;8.582;2023-02-27T12:13:32;4.50;99.90
20829;DHT22;10575;50.124;8.582;2023-02-27T12:16:11;4.50;99.90
20829;DHT22;10575;50.124;8.582;2023-02-27T12:18:51;4.60;99.90
20829;DHT22;10575;50.124;8.582;2023-02-27T12:21:21;4.80;99.90
20829;DHT22;10575;50.124;8.582;2023-02-27T12:24:06;4.90;99.90
20829;DHT22;10575;50.124;8.582;2023-02-27T12:26:45;4.80;99.90
20829;DHT22;10575;50.124;8.582;2023-02-27T12:32:18;5.10;99.90
20829;DHT22;10575;50.124;8.582;2023-02-27T12:34:53;5.30;99.90
20829;DHT22;10575;50.124;8.582;2023-02-27T12:37:25;5.40;99.90
20829;DHT22;10575;50.124;8.582;2023-02-27T12:39:54;5.20;99.90
20829;DHT22;10575;50.124;8.582;2023-02-27T12:45:39;5.50;99.40
20829;DHT22;10575;50.124;8.582;2023-02-27T12:51:13;6.00;99.50
20829;DHT22;10575;50.124;8.582;2023-02-27T12:56:52;5.90;97.50
20829;DHT22;10575;50.124;8.582;2023-02-27T13:02:37;5.70;98.00
20829;DHT22;10575;50.124;8.582;2023-02-27T13:08:00;5.80;97.20
20829;DHT22;10575;50.124;8.582;2023-02-27T13:10:38;5.60;97.00
20829;DHT22;10575;50.124;8.582;2023-02-27T13:15:53;5.30;96.60
20829;DHT22;10575;50.124;8.582;2023-02-27T13:18:39;5.20;97.00
20829;DHT22;10575;50.124;8.582;2023-02-27T13:23:57;5.20;97.20
20829;DHT22;10575;50.124;8.582;2023-02-27T13:26:35;5.40;97.30
20829;DHT22;10575;50.124;8.582;2023-02-27T13:29:04;5.80;97.10
20829;DHT22;10575;50.124;8.582;2023-02-27T13:31:39;6.10;95.00
20829;DHT22;10575;50.124;8.582;2023-02-27T13:34:26;6.30;93.90
20829;DHT22;10575;50.124;8.582;2023-02-27T13:37:00;6.30;94.30
20829;DHT22;10575;50.124;8.582;2023-02-27T13:45:04;6.10;94.90
20829;DHT22;10575;50.124;8.582;2023-02-27T13:47:46;5.90;94.70
20829;DHT22;10575;50.124;8.582;2023-02-27T13:52:45;5.30;95.20
20829;DHT22;10575;50.124;8.582;2023-02-27T13:55:30;5.30;95.40
20829;DHT22;10575;50.124;8.582;2023-02-27T13:57:59;5.20;95.60
20829;DHT22;10575;50.124;8.582;2023-02-27T14:00:30;5.10;96.10
20829;DHT22;10575;50.124;8.582;2023-02-27T14:03:17;4.90;95.90
20829;DHT22;10575;50.124;8.582;2023-02-27T14:05:45;4.90;95.80
20829;DHT22;10575;50.124;8.582;2023-02-27T14:08:15;4.90;95.70
20829;DHT22;10575;50.124;8.582;2023-02-27T14:11:12;5.00;96.40
20829;DHT22;10575;50.124;8.582;2023-02-27T14:21:53;5.00;95.20
20829;DHT22;10575;50.124;8.582;2023-02-27T14:26:55;4.90;95.40
20829;DHT22;10575;50.124;8.582;2023-02-27T14:29:27;5.00;95.10
20829;DHT22;10575;50.124;8.582;2023-02-27T14:31:56;5.00;94.70
20829;DHT22;10575;50.124;8.582;2023-02-27T14:34:24;5.00;94.90
20829;DHT22;10575;50.124;8.582;2023-02-27T14:36:52;4.90;95.00
20829;DHT22;10575;50.124;8.582;2023-02-27T14:41:55;4.90;94.70
20829;DHT22;10575;50.124;8.582;2023-02-27T14:44:25;5.00;94.70
20829;DHT22;10575;50.124;8.582;2023-02-27T14:46:54;5.20;94.30
20829;DHT22;10575;50.124;8.582;2023-02-27T14:49:24;5.40;93.90
20829;DHT22;10575;50.124;8.582;2023-02-27T14:51:50;5.60;94.30
20829;DHT22;10575;50.124;8.582;2023-02-27T14:54:18;5.90;93.00
20829;DHT22;10575;50.124;8.582;2023-02-27T14:57:01;6.00;92.50
20829;DHT22;10575;50.124;8.582;2023-02-27T14:59:41;6.00;93.10
20829;DHT22;10575;50.124;8.582;2023-02-27T15:02:20;5.90;93.20
20829;DHT22;10575;50.124;8.582;2023-02-27T15:04:47;5.70;93.50
20829;DHT22;10575;50.124;8.582;2023-02-27T15:07:19;5.60;93.90
20829;DHT22;10575;50.124;8.582;2023-02-27T15:09:50;5.50;92.40
20829;DHT22;10575;50.124;8.582;2023-02-27T15:12:18;5.40;93.50
20829;DHT22;10575;50.124;8.582;2023-02-27T15:14:56;5.40;93.30
20829;DHT22;10575;50.124;8.582;2023-02-27T15:17:36;5.50;93.10
20829;DHT22;10575;50.124;8.582;2023-02-27T15:20:23;5.80;92.70
20829;DHT22;10575;50.124;8.582;2023-02-27T15:22:49;5.90;92.90
20829;DHT22;10575;50.124;8.582;2023-02-27T15:25:35;5.90;92.20
20829;DHT22;10575;50.124;8.582;2023-02-27T15:28:05;5.80;92.10
20829;DHT22;10575;50.124;8.582;2023-02-27T15:30:31;5.70;92.00
20829;DHT22;10575;50.124;8.582;2023-02-27T15:32:57;5.60;92.50
20829;DHT22;10575;50.124;8.582;2023-02-27T15:35:44;5.50;92.90
20829;DHT22;10575;50.124;8.582;2023-02-27T15:40:49;5.20;93.20
20829;DHT22;10575;50.124;8.582;2023-02-27T15:43:15;5.20;93.50
20829;DHT22;10575;50.124;8.582;2023-02-27T15:45:40;5.20;94.20
20829;DHT22;10575;50.124;8.582;2023-02-27T15:48:13;5.20;93.80
20829;DHT22;10575;50.124;8.582;2023-02-27T15:50:53;5.20;93.40
20829;DHT22;10575;50.124;8.582;2023-02-27T15:53:22;5.10;93.70
20829;DHT22;10575;50.124;8.582;2023-02-27T15:55:59;5.00;94.00
20829;DHT22;10575;50.124;8.582;2023-02-27T15:58:32;5.10;94.60
20829;DHT22;10575;50.124;8.582;2023-02-27T16:03:31;5.00;94.60
20829;DHT22;10575;50.124;8.582;2023-02-27T16:05:59;5.00;95.00
20829;DHT22;10575;50.124;8.582;2023-02-27T16:08:25;5.00;95.00
20829;DHT22;10575;50.124;8.582;2023-02-27T16:10:51;4.90;94.60
20829;DHT22;10575;50.124;8.582;2023-02-27T16:16:22;4.90;95.00
20829;DHT22;10575;50.124;8.582;2023-02-27T16:18:51;4.80;94.40
20829;DHT22;10575;50.124;8.582;2023-02-27T16:21:23;4.70;95.10
20829;DHT22;10575;50.124;8.582;2023-02-27T16:23:49;4.80;95.30
20829;DHT22;10575;50.124;8.582;2023-02-27T16:26:31;4.70;95.20
20829;DHT22;10575;50.124;8.582;2023-02-27T16:31:25;4.60;96.10
20829;DHT22;10575;50.124;8.582;2023-02-27T16:33:53;4.60;96.40
20829;DHT22;10575;50.124;8.582;2023-02-27T16:36:21;4.60;96.80
20829;DHT22;10575;50.124;8.582;2023-02-27T16:38:47;4.60;97.60
20829;DHT22;10575;50.124;8.582;2023-02-27T16:41:14;4.60;97.20
20829;DHT22;10575;50.124;8.582;2023-02-27T16:43:42;4.50;95.90
20829;DHT22;10575;50.124;8.582;2023-02-27T16:46:14;4.40;96.20
20829;DHT22;10575;50.124;8.582;2023-02-27T16:48:54;4.40;96.30
20829;DHT22;10575;50.124;8.582;2023-02-27T16:51:22;4.40;96.30
20829;DHT22;10575;50.124;8.582;2023-02-27T16:53:50;4.40;95.50
20829;DHT22;10575;50.124;8.582;2023-02-27T16:56:17;4.40;95.90
20829;DHT22;10575;50.124;8.582;2023-02-27T16:58:43;4.40;95.90
20829;DHT22;10575;50.124;8.582;2023-02-27T17:01:09;4.40;95.90
20829;DHT22;10575;50.124;8.582;2023-02-27T17:03:38;4.40;95.80
20829;DHT22;10575;50.124;8.582;2023-02-27T17:06:03;4.40;96.00
20829;DHT22;10575;50.124;8.582;2023-02-27T17:08:30;4.30;96.10
20829;DHT22;10575;50.124;8.582;2023-02-27T17:10:55;4.30;96.30
20829;DHT22;10575;50.124;8.582;2023-02-27T17:13:22;4.20;96.60
20829;DHT22;10575;50.124;8.582;2023-02-27T17:15:48;4.20;96.70
20829;DHT22;10575;50.124;8.582;2023-02-27T17:18:13;4.10;96.90
20829;DHT22;10575;50.124;8.582;2023-02-27T17:20:39;4.10;97.10
20829;DHT22;10575;50.124;8.582;2023-02-27T17:23:04;4.10;97.20
20829;DHT22;10575;50.124;8.582;2023-02-27T17:25:33;4.00;97.30
20829;DHT22;10575;50.124;8.582;2023-02-27T17:27:58;4.00;97.10
20829;DHT22;10575;50.124;8.582;2023-02-27T17:30:24;4.00;97.00
20829;DHT22;10575;50.124;8.582;2023-02-27T17:32:49;3.90;97.20
20829;DHT22;10575;50.124;8.582;2023-02-27T17:35:15;3.90;97.50
20829;DHT22;10575;50.124;8.582;2023-02-27T17:37:40;3.80;97.40
20829;DHT22;10575;50.124;8.582;2023-02-27T17:40:06;3.70;97.60
20829;DHT22;10575;50.124;8.582;2023-02-27T17:42:35;3.70;97.50
20829;DHT22;10575;50.124;8.582;2023-02-27T17:45:01;3.60;97.80
20829;DHT22;10575;50.124;8.582;2023-02-27T17:47:30;3.60;97.90
20829;DHT22;10575;50.124;8.582;2023-02-27T17:49:55;3.50;98.30
20829;DHT22;10575;50.124;8.582;2023-02-27T17:52:21;3.50;98.50
20829;DHT22;10575;50.124;8.582;2023-02-27T17:54:47;3.50;98.80
20829;DHT22;10575;50.124;8.582;2023-02-27T17:57:12;3.40;98.90
20829;DHT22;10575;50.124;8.582;2023-02-27T17:59:38;3.40;99.20
20829;DHT22;10575;50.124;8.582;2023-02-27T18:02:05;3.40;99.30
20829;DHT22;10575;50.124;8.582;2023-02-27T18:04:31;3.40;99.40
20829;DHT22;10575;50.124;8.582;2023-02-27T18:06:56;3.30;99.40
20829;DHT22;10575;50.124;8.582;2023-02-27T18:09:23;3.30;99.70
20829;DHT22;10575;50.124;8.582;2023-02-27T18:11:48;3.30;99.90
20829;DHT22;10575;50.124;8.582;2023-02-27T18:14:14;3.30;99.90
20829;DHT22;10575;50.124;8.582;2023-02-27T18:16:40;3.30;99.90